Advance, Indiana
Current Conditions -  °F | °C
As of 6:15 AM on Wednesday 26 Nov 2014 (Local Time) from KFKR Reporting Station
Overcast Overcast  
Wind Chill: 25°   Ceiling: 1100
Heat Index: 25°   Visibility: 10mi
Dew Point: 22°   Wind: 0mph
Humidity: 87%   Direction: NA
Pressure: 30.16"   Gusts: NA
Location:  40°N, 86.62°W
Report Text: KFKR 261115Z AUTO 00000KT 10SM OVC011 M04/M06 A3016 RMK AO2 T10401058
Loading
Personal Weather Stations






























Interactive Weather Map New forecast layout! Learn more

10-Day Weather Forecast

Advertisements
Track Severe Weather on mobile